createdAt,value
2017-05-05T00:01:35.246Z,86.80
2017-05-05T00:04:03.121Z,86.50
2017-05-05T00:06:30.979Z,86.50
2017-05-05T00:08:58.838Z,86.40
2017-05-05T00:11:26.711Z,86.50
2017-05-05T00:13:54.580Z,86.60
2017-05-05T00:16:22.439Z,86.70
2017-05-05T00:18:49.959Z,86.70
2017-05-05T00:21:17.813Z,87.10
2017-05-05T00:23:46.057Z,87.10
2017-05-05T00:26:13.910Z,87.00
2017-05-05T00:28:41.786Z,86.90
2017-05-05T00:31:09.638Z,86.70
2017-05-05T00:33:37.516Z,86.90
2017-05-05T00:36:05.381Z,87.10
2017-05-05T00:38:33.252Z,86.90
2017-05-05T00:41:01.119Z,86.80
2017-05-05T00:43:29.001Z,87.10
2017-05-05T00:45:56.860Z,87.10
2017-05-05T00:48:24.741Z,86.90
2017-05-05T00:50:52.592Z,86.90
2017-05-05T00:53:20.052Z,86.90
2017-05-05T00:55:47.922Z,87.00
2017-05-05T00:58:15.798Z,87.00
2017-05-05T01:00:43.665Z,87.10
2017-05-05T01:03:11.543Z,87.10
2017-05-05T01:05:39.410Z,87.10
2017-05-05T01:08:07.634Z,86.90
2017-05-05T01:10:35.498Z,87.00
2017-05-05T01:13:02.981Z,87.00
2017-05-05T01:15:31.471Z,87.20
2017-05-05T01:17:58.931Z,87.20
2017-05-05T01:20:26.414Z,87.40
2017-05-05T01:22:53.895Z,87.40
2017-05-05T01:25:21.755Z,87.40
2017-05-05T01:27:49.635Z,87.10
2017-05-05T01:30:17.491Z,86.80
2017-05-05T01:32:45.348Z,87.00
2017-05-05T01:35:13.483Z,87.20
2017-05-05T01:37:41.344Z,86.80
2017-05-05T01:40:09.211Z,87.00
2017-05-05T01:42:37.476Z,87.00
2017-05-05T01:45:05.327Z,87.20
2017-05-05T01:47:32.789Z,87.20
2017-05-05T01:50:01.047Z,87.10
2017-05-05T01:52:28.907Z,87.00
2017-05-05T01:54:56.758Z,87.10
2017-05-05T01:57:24.866Z,87.20
2017-05-05T01:59:52.711Z,87.00
2017-05-05T02:02:20.171Z,87.00
2017-05-05T02:04:48.142Z,87.10
2017-05-05T02:07:16.008Z,87.10
2017-05-05T02:09:43.867Z,87.10
2017-05-05T02:12:12.038Z,87.10
2017-05-05T02:14:39.502Z,87.10
2017-05-05T02:17:07.359Z,87.70
2017-05-05T02:19:35.038Z,87.70
2017-05-05T02:22:02.896Z,87.10
2017-05-05T02:24:30.755Z,87.20
2017-05-05T02:26:59.784Z,87.20
2017-05-05T02:29:27.675Z,87.10
2017-05-05T02:31:55.915Z,88.70
2017-05-05T02:34:23.931Z,89.10
2017-05-05T02:36:51.398Z,89.10
2017-05-05T02:39:19.299Z,89.40
2017-05-05T02:41:47.661Z,88.70
2017-05-05T02:44:15.528Z,89.10
2017-05-05T02:46:43.391Z,88.10
2017-05-05T02:49:11.568Z,87.20
2017-05-05T02:51:39.044Z,87.20
2017-05-05T02:54:06.519Z,87.30
2017-05-05T02:56:34.414Z,86.80
2017-05-05T02:59:02.284Z,86.70
2017-05-05T03:01:30.156Z,86.50
2017-05-05T03:03:57.945Z,86.50
2017-05-05T03:06:25.808Z,86.60
2017-05-05T03:08:53.680Z,86.90
2017-05-05T03:11:22.069Z,87.20
2017-05-05T03:13:49.936Z,87.10
2017-05-05T03:16:17.800Z,86.80
2017-05-05T03:18:46.109Z,86.60
2017-05-05T03:21:13.970Z,86.70
2017-05-05T03:23:41.840Z,86.80
2017-05-05T03:26:09.939Z,87.00
2017-05-05T03:28:37.419Z,87.00
2017-05-05T03:31:04.888Z,87.00
2017-05-05T03:33:32.782Z,86.60
2017-05-05T03:36:00.656Z,86.70
2017-05-05T03:38:28.520Z,87.00
2017-05-05T03:40:56.408Z,86.60
2017-05-05T03:43:24.264Z,86.60
2017-05-05T03:45:52.123Z,86.80
2017-05-05T03:48:19.999Z,86.70
2017-05-05T03:50:47.855Z,88.20
2017-05-05T03:53:15.715Z,88.80
2017-05-05T03:55:43.794Z,89.50
2017-05-05T03:58:11.648Z,89.60
2017-05-05T04:00:39.507Z,90.10
2017-05-05T04:03:07.475Z,90.40
2017-05-05T04:05:35.343Z,90.20
2017-05-05T04:08:02.803Z,90.20
2017-05-05T04:10:30.957Z,90.10
2017-05-05T04:12:58.814Z,90.30
2017-05-05T04:15:26.671Z,89.60
2017-05-05T04:17:54.837Z,89.30
2017-05-05T04:20:22.300Z,89.40
2017-05-05T04:22:49.761Z,89.90
2017-05-05T04:25:17.456Z,89.40
2017-05-05T04:27:45.308Z,87.90
2017-05-05T04:30:13.175Z,87.70
2017-05-05T04:32:41.347Z,87.70
2017-05-05T04:35:08.817Z,87.70
2017-05-05T04:37:36.280Z,88.00
2017-05-05T04:40:04.158Z,90.10
2017-05-05T04:42:31.623Z,90.10
2017-05-05T04:44:59.484Z,88.60
2017-05-05T04:47:27.615Z,87.50
2017-05-05T04:49:55.475Z,86.90
2017-05-05T04:52:23.331Z,87.00
2017-05-05T04:54:50.821Z,87.00
2017-05-05T04:57:18.679Z,87.40
2017-05-05T04:59:46.535Z,87.40
2017-05-05T05:02:14.503Z,87.40
2017-05-05T05:04:42.359Z,87.60
2017-05-05T05:07:09.832Z,87.60
2017-05-05T05:09:37.978Z,87.40
2017-05-05T05:12:05.838Z,87.30
2017-05-05T05:14:33.304Z,87.30
2017-05-05T05:17:01.440Z,86.20
2017-05-05T05:19:29.301Z,86.10
2017-05-05T05:21:57.169Z,86.30
2017-05-05T05:24:25.303Z,86.80
2017-05-05T05:26:53.161Z,86.50
2017-05-05T05:29:20.623Z,86.50
2017-05-05T05:31:48.389Z,86.40
2017-05-05T05:34:15.852Z,86.40
2017-05-05T05:36:43.714Z,86.70
2017-05-05T05:39:11.886Z,86.60
2017-05-05T05:41:39.742Z,86.40
2017-05-05T05:44:07.607Z,86.80
2017-05-05T05:46:45.053Z,87.40
2017-05-05T05:49:12.523Z,87.40
2017-05-05T05:51:39.987Z,87.10
2017-05-05T05:54:08.293Z,86.50
2017-05-05T05:56:35.762Z,86.50
2017-05-05T05:59:03.258Z,86.30
2017-05-05T06:01:31.278Z,86.50
2017-05-05T06:03:59.148Z,86.60
2017-05-05T06:06:27.243Z,86.60
2017-05-05T06:08:54.775Z,85.80
2017-05-05T06:11:22.638Z,86.00
2017-05-05T06:13:50.814Z,85.80
2017-05-05T06:16:18.283Z,85.80
2017-05-05T06:18:46.151Z,85.70
2017-05-05T06:21:14.142Z,85.90
2017-05-05T06:23:42.004Z,85.60
2017-05-05T06:26:09.867Z,86.10
2017-05-05T06:28:37.903Z,85.40
2017-05-05T06:31:06.644Z,85.60
2017-05-05T06:33:34.516Z,85.70
2017-05-05T06:36:03.146Z,85.10
2017-05-05T06:38:31.006Z,85.20
2017-05-05T06:40:58.471Z,85.20
2017-05-05T06:43:26.250Z,85.00
2017-05-05T06:45:54.107Z,84.80
2017-05-05T06:48:21.966Z,84.30
2017-05-05T06:50:49.822Z,84.40
2017-05-05T06:53:17.287Z,84.40
2017-05-05T06:55:45.571Z,84.30
2017-05-05T06:58:13.430Z,84.00
2017-05-05T07:00:41.295Z,83.80
2017-05-05T07:03:09.168Z,83.80
2017-05-05T07:05:36.636Z,83.50
2017-05-05T07:08:04.494Z,83.30
2017-05-05T07:10:32.380Z,83.40
2017-05-05T07:12:59.843Z,83.40
2017-05-05T07:15:27.708Z,83.20
2017-05-05T07:17:56.054Z,82.80
2017-05-05T07:20:23.917Z,82.90
2017-05-05T07:22:51.791Z,82.50
2017-05-05T07:25:19.855Z,82.40
2017-05-05T07:27:47.718Z,82.20
2017-05-05T07:30:15.579Z,82.10
2017-05-05T07:32:43.561Z,82.10
2017-05-05T07:35:11.031Z,82.30
2017-05-05T07:37:38.490Z,82.40
2017-05-05T07:40:06.851Z,81.90
2017-05-05T07:42:34.311Z,81.90
2017-05-05T07:45:01.777Z,82.00
2017-05-05T07:47:29.851Z,82.20
2017-05-05T07:49:57.707Z,81.80
2017-05-05T07:52:25.168Z,81.80
2017-05-05T07:54:53.437Z,81.70
2017-05-05T07:57:21.300Z,80.80
2017-05-05T07:59:48.767Z,80.80
2017-05-05T08:02:17.030Z,80.80
2017-05-05T08:04:44.887Z,80.10
2017-05-05T08:07:12.346Z,80.10
2017-05-05T08:09:40.583Z,80.10
2017-05-05T08:12:08.048Z,80.10
2017-05-05T08:14:36.099Z,80.10
2017-05-05T08:17:03.975Z,80.40
2017-05-05T08:19:31.439Z,80.40
2017-05-05T08:21:59.668Z,80.30
2017-05-05T08:24:27.755Z,80.30
2017-05-05T08:26:55.611Z,79.90
2017-05-05T08:29:23.465Z,79.80
2017-05-05T08:31:51.452Z,79.80
2017-05-05T08:34:19.304Z,79.90
2017-05-05T08:36:47.165Z,79.10
2017-05-05T08:39:15.250Z,79.10
2017-05-05T08:41:42.714Z,79.10
2017-05-05T08:44:10.596Z,78.80
2017-05-05T08:46:38.620Z,78.80
2017-05-05T08:49:06.533Z,79.60
2017-05-05T08:51:34.000Z,79.50
2017-05-05T08:54:02.222Z,79.80
2017-05-05T08:56:30.082Z,79.20
2017-05-05T08:58:57.542Z,79.20
2017-05-05T09:01:25.511Z,78.70
2017-05-05T09:03:53.364Z,78.40
2017-05-05T09:06:20.818Z,78.40
2017-05-05T09:08:48.959Z,78.90
2017-05-05T09:11:16.819Z,78.20
2017-05-05T09:13:44.671Z,79.00
2017-05-05T09:16:12.703Z,79.00
2017-05-05T09:18:40.554Z,77.30
2017-05-05T09:21:08.402Z,77.60
2017-05-05T09:23:36.574Z,78.10
2017-05-05T09:26:04.430Z,77.00
2017-05-05T09:28:32.655Z,76.40
2017-05-05T09:31:00.699Z,76.40
2017-05-05T09:33:28.550Z,77.80
2017-05-05T09:35:56.400Z,78.20
2017-05-05T09:38:24.536Z,77.70
2017-05-05T09:40:52.410Z,77.80
2017-05-05T09:43:20.297Z,76.80
2017-05-05T09:45:48.168Z,76.50
2017-05-05T09:48:15.630Z,76.50
2017-05-05T09:50:43.726Z,77.00
2017-05-05T09:53:11.584Z,76.80
2017-05-05T09:55:39.445Z,76.90
2017-05-05T09:58:07.625Z,76.90
2017-05-05T10:00:35.484Z,76.90
2017-05-05T10:03:03.440Z,76.70
2017-05-05T10:05:33.942Z,77.10
2017-05-05T10:08:01.823Z,77.00
2017-05-05T10:10:32.064Z,76.70
2017-05-05T10:13:02.517Z,78.70
2017-05-05T10:15:33.827Z,77.10
2017-05-05T10:18:01.785Z,77.50
2017-05-05T10:20:31.088Z,77.50
2017-05-05T10:22:58.605Z,77.80
2017-05-05T10:25:26.146Z,77.40
2017-05-05T10:27:53.606Z,77.60
2017-05-05T10:30:21.332Z,77.40
2017-05-05T10:32:48.800Z,76.30
2017-05-05T10:35:17.031Z,75.90
2017-05-05T10:37:45.193Z,76.10
2017-05-05T10:40:13.047Z,76.20
2017-05-05T10:42:40.504Z,76.20
2017-05-05T10:45:08.198Z,75.90
2017-05-05T10:47:35.658Z,77.70
2017-05-05T10:50:03.523Z,76.80
2017-05-05T10:52:31.779Z,76.60
2017-05-05T10:54:59.630Z,76.60
2017-05-05T10:57:27.248Z,76.60
2017-05-05T10:59:55.692Z,76.10
2017-05-05T11:02:25.827Z,76.60
2017-05-05T11:04:53.796Z,76.70
2017-05-05T11:07:22.057Z,77.20
2017-05-05T11:09:49.518Z,77.20
2017-05-05T11:12:17.369Z,76.70
2017-05-05T11:14:45.346Z,76.40
2017-05-05T11:17:13.209Z,76.30
2017-05-05T11:19:41.306Z,76.70
2017-05-05T11:22:09.550Z,76.50
2017-05-05T11:24:37.411Z,76.50
2017-05-05T11:27:06.057Z,77.50
2017-05-05T11:29:34.276Z,77.00
2017-05-05T11:32:02.134Z,76.90
2017-05-05T11:34:29.986Z,75.60
2017-05-05T11:36:57.867Z,75.60
2017-05-05T11:39:25.722Z,75.40
2017-05-05T11:41:53.579Z,75.20
2017-05-05T11:44:21.779Z,75.40
2017-05-05T11:46:49.272Z,75.40
2017-05-05T11:49:16.741Z,75.20
2017-05-05T11:51:45.384Z,74.50
2017-05-05T11:54:13.259Z,74.30
2017-05-05T11:56:41.932Z,74.70
2017-05-05T11:59:10.210Z,75.00
2017-05-05T12:01:37.664Z,75.00
2017-05-05T12:04:05.518Z,74.80
2017-05-05T12:06:33.099Z,74.80
2017-05-05T12:09:00.958Z,74.00
2017-05-05T12:11:28.418Z,74.00
2017-05-05T12:13:56.571Z,73.70
2017-05-05T12:16:24.193Z,73.70
2017-05-05T12:18:52.062Z,73.40
2017-05-05T12:21:20.306Z,73.90
2017-05-05T12:23:48.163Z,73.60
2017-05-05T12:26:16.162Z,74.60
2017-05-05T12:28:44.056Z,75.90
2017-05-05T12:31:11.519Z,75.90
2017-05-05T12:33:39.384Z,73.70
2017-05-05T12:36:07.575Z,74.60
2017-05-05T12:38:35.431Z,72.90
2017-05-05T12:41:02.898Z,72.90
2017-05-05T12:43:30.873Z,73.40
2017-05-05T12:45:58.730Z,72.80
2017-05-05T12:48:26.590Z,73.00
2017-05-05T12:50:54.774Z,73.30
2017-05-05T12:53:22.632Z,72.70
2017-05-05T12:55:50.556Z,73.00
2017-05-05T12:58:18.695Z,72.50
2017-05-05T13:00:46.633Z,74.20
2017-05-05T13:03:14.090Z,74.20
2017-05-05T13:05:42.648Z,73.00
2017-05-05T13:08:10.696Z,72.90
2017-05-05T13:10:38.607Z,73.30
2017-05-05T13:13:06.596Z,73.60
2017-05-05T13:15:34.055Z,73.60
2017-05-05T13:18:01.919Z,72.80
2017-05-05T13:20:30.084Z,72.70
2017-05-05T13:22:57.943Z,72.80
2017-05-05T13:25:25.404Z,72.80
2017-05-05T13:27:53.686Z,73.20
2017-05-05T13:30:21.547Z,72.30
2017-05-05T13:32:49.011Z,72.30
2017-05-05T13:35:16.979Z,71.40
2017-05-05T13:37:44.446Z,71.70
2017-05-05T13:40:12.311Z,71.50
2017-05-05T13:42:40.579Z,71.80
2017-05-05T13:45:08.448Z,71.50
2017-05-05T13:47:38.224Z,71.10
2017-05-05T13:50:06.019Z,71.10
2017-05-05T13:52:33.874Z,71.20
2017-05-05T13:55:01.332Z,71.20
2017-05-05T13:57:29.298Z,71.00
2017-05-05T13:59:57.159Z,70.90
2017-05-05T14:02:24.619Z,70.90
2017-05-05T14:04:52.910Z,71.10
2017-05-05T14:07:20.781Z,70.70
2017-05-05T14:09:48.640Z,71.10
2017-05-05T14:12:16.819Z,70.90
2017-05-05T14:14:44.683Z,70.70
2017-05-05T14:17:12.544Z,70.10
2017-05-05T14:19:40.412Z,70.10
2017-05-05T14:22:08.271Z,71.90
2017-05-05T14:24:35.738Z,72.00
2017-05-05T14:27:03.875Z,71.60
2017-05-05T14:29:31.351Z,71.60
2017-05-05T14:31:59.208Z,70.70
2017-05-05T14:34:27.202Z,71.30
2017-05-05T14:36:54.668Z,71.30
2017-05-05T14:39:22.531Z,71.00
2017-05-05T14:41:50.899Z,70.90
2017-05-05T14:44:18.375Z,70.90
2017-05-05T14:46:46.238Z,71.00
2017-05-05T14:49:14.373Z,71.60
2017-05-05T14:51:42.222Z,71.10
2017-05-05T14:54:10.826Z,71.50
2017-05-05T14:56:39.016Z,71.00
2017-05-05T14:59:06.479Z,71.00
2017-05-05T15:01:34.761Z,71.10
2017-05-05T15:04:02.927Z,71.30
2017-05-05T15:06:30.796Z,71.10
2017-05-05T15:08:58.655Z,71.70
2017-05-05T15:11:26.826Z,71.70
2017-05-05T15:13:54.295Z,71.70
2017-05-05T15:16:21.751Z,71.30
2017-05-05T15:18:49.913Z,71.70
2017-05-05T15:21:17.375Z,71.70
2017-05-05T15:23:45.239Z,71.70
2017-05-05T15:26:13.406Z,71.70
2017-05-05T15:28:41.264Z,71.70
2017-05-05T15:31:09.124Z,71.60
2017-05-05T15:33:37.311Z,70.90
2017-05-05T15:36:05.177Z,70.90
2017-05-05T15:38:33.030Z,71.60
2017-05-05T15:41:00.586Z,71.60
2017-05-05T15:43:28.050Z,71.30
2017-05-05T15:45:55.512Z,71.40
2017-05-05T15:48:23.494Z,71.90
2017-05-05T15:50:51.349Z,72.30
2017-05-05T15:53:19.206Z,72.50
2017-05-05T15:55:47.194Z,72.50
2017-05-05T15:58:15.048Z,72.00
2017-05-05T16:00:42.501Z,72.00
2017-05-05T16:03:10.251Z,72.10
2017-05-05T16:05:37.710Z,72.30
2017-05-05T16:08:05.563Z,72.60
2017-05-05T16:10:33.229Z,72.60
2017-05-05T16:13:00.690Z,72.10
2017-05-05T16:15:28.543Z,72.70
2017-05-05T16:17:56.754Z,72.20
2017-05-05T16:20:24.215Z,72.20
2017-05-05T16:22:52.080Z,71.90
2017-05-05T16:25:20.361Z,72.70
2017-05-05T16:27:48.236Z,72.10
2017-05-05T16:30:16.103Z,71.90
2017-05-05T16:32:45.477Z,72.30
2017-05-05T16:35:13.344Z,72.00
2017-05-05T16:37:40.816Z,72.00
2017-05-05T16:40:09.092Z,71.50
2017-05-05T16:42:36.964Z,71.90
2017-05-05T16:45:04.834Z,71.50
2017-05-05T16:47:32.821Z,71.70
2017-05-05T16:50:00.687Z,71.50
2017-05-05T16:52:28.551Z,71.30
2017-05-05T16:54:56.537Z,71.50
2017-05-05T16:57:24.403Z,71.80
2017-05-05T16:59:52.649Z,71.50
2017-05-05T17:02:20.808Z,71.40
2017-05-05T17:04:48.276Z,71.40
2017-05-05T17:07:16.285Z,72.10
2017-05-05T17:09:44.675Z,72.30
2017-05-05T17:12:12.157Z,72.30
2017-05-05T17:14:39.631Z,73.00
2017-05-05T17:17:08.011Z,73.30
2017-05-05T17:19:35.884Z,73.40
2017-05-05T17:22:03.753Z,73.70
2017-05-05T17:24:31.911Z,73.70
2017-05-05T17:27:00.094Z,74.20
2017-05-05T17:29:28.017Z,74.30
2017-05-05T17:31:56.246Z,74.30
2017-05-05T17:34:24.108Z,74.40
2017-05-05T17:36:52.248Z,74.40
2017-05-05T17:39:20.288Z,74.40
2017-05-05T17:41:48.272Z,75.00
2017-05-05T17:44:15.772Z,75.00
2017-05-05T17:46:43.635Z,75.40
2017-05-05T17:49:11.499Z,75.40
2017-05-05T17:51:39.264Z,75.50
2017-05-05T17:54:08.915Z,75.50
2017-05-05T17:56:36.895Z,75.70
2017-05-05T17:59:04.962Z,76.00
2017-05-05T18:01:32.818Z,76.10
2017-05-05T18:04:01.042Z,76.00
2017-05-05T18:06:29.221Z,76.20
2017-05-05T18:08:57.083Z,76.30
2017-05-05T18:11:24.543Z,76.30
2017-05-05T18:13:52.819Z,76.60
2017-05-05T18:16:20.674Z,76.80
2017-05-05T18:18:48.135Z,76.80
2017-05-05T18:21:15.700Z,76.90
2017-05-05T18:23:43.556Z,77.20
2017-05-05T18:26:11.431Z,77.20
2017-05-05T18:28:39.209Z,77.20
2017-05-05T18:31:06.690Z,77.40
2017-05-05T18:33:34.765Z,77.70
2017-05-05T18:36:03.867Z,78.00
2017-05-05T18:38:31.767Z,78.00
2017-05-05T18:40:59.249Z,78.00
2017-05-05T18:43:27.850Z,78.10
2017-05-05T18:45:55.791Z,78.20
2017-05-05T18:48:23.647Z,78.30
2017-05-05T18:50:52.015Z,78.40
2017-05-05T18:53:19.876Z,78.50
2017-05-05T18:55:47.728Z,78.50
2017-05-05T18:58:15.700Z,78.80
2017-05-05T19:00:43.925Z,79.10
2017-05-05T19:03:11.782Z,79.30
2017-05-05T19:05:40.158Z,79.40
2017-05-05T19:08:08.018Z,79.50
2017-05-05T19:10:35.496Z,79.50
2017-05-05T19:13:03.755Z,79.90
2017-05-05T19:15:31.566Z,79.90
2017-05-05T19:17:59.570Z,79.90
2017-05-05T19:20:28.178Z,80.00
2017-05-05T19:22:56.035Z,80.20
2017-05-05T19:25:24.034Z,80.20
2017-05-05T19:27:52.023Z,80.20
2017-05-05T19:30:19.561Z,80.20
2017-05-05T19:32:47.184Z,80.50
2017-05-05T19:35:15.456Z,80.40
2017-05-05T19:37:42.937Z,80.40
2017-05-05T19:40:10.795Z,80.90
2017-05-05T19:42:39.590Z,82.20
2017-05-05T19:45:07.522Z,82.10
2017-05-05T19:47:35.169Z,82.10
2017-05-05T19:50:02.975Z,82.00
2017-05-05T19:52:30.993Z,81.50
2017-05-05T19:55:00.159Z,81.50
2017-05-05T19:57:28.275Z,81.40
2017-05-05T19:59:56.142Z,81.40
2017-05-05T20:02:23.611Z,81.40
2017-05-05T20:04:51.841Z,81.60
2017-05-05T20:07:19.701Z,82.30
2017-05-05T20:09:47.559Z,82.90
2017-05-05T20:12:15.307Z,82.90
2017-05-05T20:14:43.364Z,81.80
2017-05-05T20:17:11.053Z,81.80
2017-05-05T20:19:39.515Z,82.00
2017-05-05T20:22:07.596Z,82.30
2017-05-05T20:24:35.456Z,82.40
2017-05-05T20:27:03.495Z,82.40
2017-05-05T20:29:31.972Z,84.80
2017-05-05T20:31:59.827Z,85.80
2017-05-05T20:34:28.251Z,85.90
2017-05-05T20:36:56.107Z,86.50
2017-05-05T20:39:23.568Z,86.50
2017-05-05T20:41:51.575Z,86.80
2017-05-05T20:44:19.432Z,88.40
2017-05-05T20:46:47.403Z,88.70
2017-05-05T20:49:15.414Z,88.90
2017-05-05T20:51:43.266Z,88.70
2017-05-05T20:54:11.491Z,89.10
2017-05-05T20:56:39.597Z,89.10
2017-05-05T20:59:07.639Z,88.30
2017-05-05T21:01:35.584Z,88.80
2017-05-05T21:04:03.867Z,89.20
2017-05-05T21:06:31.723Z,89.30
2017-05-05T21:08:59.181Z,89.30
2017-05-05T21:11:27.471Z,89.40
2017-05-05T21:13:56.183Z,88.50
2017-05-05T21:16:24.292Z,88.30
2017-05-05T21:18:52.300Z,88.30
2017-05-05T21:21:20.875Z,87.20
2017-05-05T21:23:48.738Z,86.30
2017-05-05T21:26:17.127Z,86.00
2017-05-05T21:28:44.990Z,85.80
2017-05-05T21:31:12.908Z,85.60
2017-05-05T21:33:40.625Z,85.60
2017-05-05T21:36:08.626Z,85.70
2017-05-05T21:38:36.498Z,85.60
2017-05-05T21:41:04.632Z,85.50
2017-05-05T21:43:32.100Z,85.60
2017-05-05T21:45:59.958Z,85.90
2017-05-05T21:48:28.131Z,85.70
2017-05-05T21:50:55.981Z,86.40
2017-05-05T21:53:23.944Z,86.90
2017-05-05T21:55:52.740Z,87.30
2017-05-05T21:58:20.606Z,87.20
2017-05-05T22:00:48.198Z,87.20
2017-05-05T22:03:16.892Z,87.90
2017-05-05T22:05:45.080Z,88.50
2017-05-05T22:08:13.323Z,89.50
2017-05-05T22:10:41.803Z,89.60
2017-05-05T22:13:09.908Z,89.60
2017-05-05T22:15:38.235Z,89.00
2017-05-05T22:18:06.616Z,88.90
2017-05-05T22:20:34.496Z,88.70
2017-05-05T22:23:02.600Z,88.70
2017-05-05T22:25:31.452Z,88.60
2017-05-05T22:27:58.959Z,88.60
2017-05-05T22:30:27.223Z,88.10
2017-05-05T22:32:55.738Z,88.20
2017-05-05T22:35:23.308Z,88.20
2017-05-05T22:37:51.292Z,88.50
2017-05-05T22:40:19.319Z,88.70
2017-05-05T22:42:47.200Z,88.10
2017-05-05T22:45:15.065Z,87.70
2017-05-05T22:47:42.859Z,87.70
2017-05-05T22:50:10.714Z,87.30
2017-05-05T22:52:38.568Z,87.10
2017-05-05T22:55:06.528Z,87.00
2017-05-05T22:57:34.378Z,87.10
2017-05-05T23:00:02.236Z,87.00
2017-05-05T23:02:29.975Z,87.00
2017-05-05T23:04:57.831Z,87.10
2017-05-05T23:07:25.682Z,87.00
2017-05-05T23:09:53.776Z,87.10
2017-05-05T23:12:21.629Z,87.10
2017-05-05T23:14:49.491Z,86.90
2017-05-05T23:17:17.382Z,86.90
2017-05-05T23:19:45.246Z,87.00
2017-05-05T23:22:13.108Z,87.00
2017-05-05T23:24:41.197Z,86.90
2017-05-05T23:27:09.684Z,87.00
2017-05-05T23:29:37.544Z,87.00
2017-05-05T23:32:05.928Z,87.00
2017-05-05T23:34:33.789Z,86.90
2017-05-05T23:37:01.279Z,86.90
2017-05-05T23:39:29.017Z,87.10
2017-05-05T23:41:57.264Z,87.10
2017-05-05T23:44:25.128Z,87.30
2017-05-05T23:46:53.492Z,87.30
2017-05-05T23:49:20.971Z,87.30
2017-05-05T23:51:48.817Z,87.30
2017-05-05T23:54:16.296Z,87.30
2017-05-05T23:56:44.143Z,87.20
2017-05-05T23:59:12.000Z,87.30
